sensor_id;sensor_type;location;lat;lon;timestamp;P1;durP1;ratioP1;P2;durP2;ratioP2
65924;SDS011;66010;52.084;5.412;2023-07-20T00:00:18;4.50;;;1.70;;
65924;SDS011;66010;52.084;5.412;2023-07-20T00:02:45;5.53;;;2.00;;
65924;SDS011;66010;52.084;5.412;2023-07-20T00:05:12;4.35;;;1.60;;
65924;SDS011;66010;52.084;5.412;2023-07-20T00:07:38;4.43;;;2.00;;
65924;SDS011;66010;52.084;5.412;2023-07-20T00:10:05;4.22;;;1.80;;
65924;SDS011;66010;52.084;5.412;2023-07-20T00:12:32;5.20;;;1.83;;
65924;SDS011;66010;52.084;5.412;2023-07-20T00:14:59;3.30;;;1.52;;
65924;SDS011;66010;52.084;5.412;2023-07-20T00:17:26;6.43;;;2.03;;
65924;SDS011;66010;52.084;5.412;2023-07-20T00:19:53;4.90;;;1.92;;
65924;SDS011;66010;52.084;5.412;2023-07-20T00:22:19;5.35;;;1.63;;
65924;SDS011;66010;52.084;5.412;2023-07-20T00:24:46;3.47;;;1.70;;
65924;SDS011;66010;52.084;5.412;2023-07-20T00:27:13;3.50;;;1.40;;
65924;SDS011;66010;52.084;5.412;2023-07-20T00:29:40;4.13;;;1.65;;
65924;SDS011;66010;52.084;5.412;2023-07-20T00:32:08;2.95;;;1.40;;
65924;SDS011;66010;52.084;5.412;2023-07-20T00:34:34;3.85;;;1.48;;
65924;SDS011;66010;52.084;5.412;2023-07-20T00:37:01;5.07;;;1.70;;
65924;SDS011;66010;52.084;5.412;2023-07-20T00:39:28;2.85;;;1.20;;
65924;SDS011;66010;52.084;5.412;2023-07-20T00:41:54;3.85;;;1.33;;
65924;SDS011;66010;52.084;5.412;2023-07-20T00:44:23;3.58;;;1.40;;
65924;SDS011;66010;52.084;5.412;2023-07-20T00:46:50;2.83;;;1.33;;
65924;SDS011;66010;52.084;5.412;2023-07-20T00:49:17;2.53;;;1.20;;
65924;SDS011;66010;52.084;5.412;2023-07-20T00:51:47;3.72;;;1.52;;
65924;SDS011;66010;52.084;5.412;2023-07-20T00:54:15;3.83;;;1.52;;
65924;SDS011;66010;52.084;5.412;2023-07-20T00:56:42;2.15;;;1.20;;
65924;SDS011;66010;52.084;5.412;2023-07-20T00:59:12;3.67;;;1.40;;
65924;SDS011;66010;52.084;5.412;2023-07-20T01:01:39;3.17;;;1.42;;
65924;SDS011;66010;52.084;5.412;2023-07-20T01:04:06;2.25;;;1.20;;
65924;SDS011;66010;52.084;5.412;2023-07-20T01:06:36;4.55;;;1.15;;
65924;SDS011;66010;52.084;5.412;2023-07-20T01:09:13;3.83;;;1.42;;
65924;SDS011;66010;52.084;5.412;2023-07-20T01:14:10;5.30;;;1.63;;
65924;SDS011;66010;52.084;5.412;2023-07-20T01:16:38;2.72;;;1.20;;
65924;SDS011;66010;52.084;5.412;2023-07-20T01:19:05;2.90;;;1.15;;
65924;SDS011;66010;52.084;5.412;2023-07-20T01:21:37;3.67;;;1.10;;
65924;SDS011;66010;52.084;5.412;2023-07-20T01:24:18;2.25;;;1.20;;
65924;SDS011;66010;52.084;5.412;2023-07-20T01:27:34;1.90;;;1.10;;
65924;SDS011;66010;52.084;5.412;2023-07-20T01:32:33;2.40;;;1.20;;
65924;SDS011;66010;52.084;5.412;2023-07-20T01:35:00;2.25;;;1.23;;
65924;SDS011;66010;52.084;5.412;2023-07-20T01:37:28;3.90;;;1.30;;
65924;SDS011;66010;52.084;5.412;2023-07-20T01:39:57;2.92;;;1.20;;
65924;SDS011;66010;52.084;5.412;2023-07-20T01:42:24;1.55;;;1.08;;
65924;SDS011;66010;52.084;5.412;2023-07-20T01:44:51;5.25;;;1.50;;
65924;SDS011;66010;52.084;5.412;2023-07-20T01:47:22;2.15;;;1.20;;
65924;SDS011;66010;52.084;5.412;2023-07-20T01:49:49;2.72;;;1.20;;
65924;SDS011;66010;52.084;5.412;2023-07-20T01:52:16;3.38;;;1.00;;
65924;SDS011;66010;52.084;5.412;2023-07-20T01:54:43;2.28;;;1.20;;
65924;SDS011;66010;52.084;5.412;2023-07-20T01:57:10;1.92;;;1.10;;
65924;SDS011;66010;52.084;5.412;2023-07-20T01:59:39;1.88;;;1.20;;
65924;SDS011;66010;52.084;5.412;2023-07-20T02:02:06;2.85;;;1.27;;
65924;SDS011;66010;52.084;5.412;2023-07-20T02:04:33;3.88;;;1.05;;
65924;SDS011;66010;52.084;5.412;2023-07-20T02:07:00;3.08;;;1.40;;
65924;SDS011;66010;52.084;5.412;2023-07-20T02:09:26;3.80;;;1.48;;
65924;SDS011;66010;52.084;5.412;2023-07-20T02:11:53;2.63;;;1.10;;
65924;SDS011;66010;52.084;5.412;2023-07-20T02:14:20;2.15;;;1.10;;
65924;SDS011;66010;52.084;5.412;2023-07-20T02:16:49;2.15;;;1.30;;
65924;SDS011;66010;52.084;5.412;2023-07-20T02:19:20;2.72;;;1.38;;
65924;SDS011;66010;52.084;5.412;2023-07-20T02:21:47;4.93;;;1.20;;
65924;SDS011;66010;52.084;5.412;2023-07-20T02:24:14;3.45;;;1.38;;
65924;SDS011;66010;52.084;5.412;2023-07-20T02:26:41;4.75;;;1.38;;
65924;SDS011;66010;52.084;5.412;2023-07-20T02:29:08;3.67;;;1.15;;
65924;SDS011;66010;52.084;5.412;2023-07-20T02:31:37;2.03;;;1.20;;
65924;SDS011;66010;52.084;5.412;2023-07-20T02:34:06;1.58;;;1.10;;
65924;SDS011;66010;52.084;5.412;2023-07-20T02:36:33;2.17;;;1.10;;
65924;SDS011;66010;52.084;5.412;2023-07-20T02:39:00;5.30;;;1.20;;
65924;SDS011;66010;52.084;5.412;2023-07-20T02:41:33;6.95;;;1.33;;
65924;SDS011;66010;52.084;5.412;2023-07-20T02:44:00;2.38;;;1.20;;
65924;SDS011;66010;52.084;5.412;2023-07-20T02:46:27;1.92;;;0.95;;
65924;SDS011;66010;52.084;5.412;2023-07-20T02:48:57;3.75;;;1.30;;
65924;SDS011;66010;52.084;5.412;2023-07-20T02:51:24;4.75;;;1.20;;
65924;SDS011;66010;52.084;5.412;2023-07-20T02:53:50;3.05;;;1.20;;
65924;SDS011;66010;52.084;5.412;2023-07-20T02:56:17;4.82;;;1.33;;
65924;SDS011;66010;52.084;5.412;2023-07-20T03:01:12;6.32;;;1.27;;
65924;SDS011;66010;52.084;5.412;2023-07-20T03:03:39;3.47;;;1.38;;
65924;SDS011;66010;52.084;5.412;2023-07-20T03:06:06;3.22;;;1.17;;
65924;SDS011;66010;52.084;5.412;2023-07-20T03:08:35;3.40;;;1.15;;
65924;SDS011;66010;52.084;5.412;2023-07-20T03:11:02;4.25;;;1.33;;
65924;SDS011;66010;52.084;5.412;2023-07-20T03:13:29;2.22;;;1.02;;
65924;SDS011;66010;52.084;5.412;2023-07-20T03:15:57;4.00;;;1.08;;
65924;SDS011;66010;52.084;5.412;2023-07-20T03:18:24;1.67;;;1.02;;
65924;SDS011;66010;52.084;5.412;2023-07-20T03:20:50;7.38;;;1.20;;
65924;SDS011;66010;52.084;5.412;2023-07-20T03:23:17;4.32;;;1.33;;
65924;SDS011;66010;52.084;5.412;2023-07-20T03:25:44;2.30;;;1.20;;
65924;SDS011;66010;52.084;5.412;2023-07-20T03:28:11;2.15;;;1.23;;
65924;SDS011;66010;52.084;5.412;2023-07-20T03:30:37;1.67;;;1.17;;
65924;SDS011;66010;52.084;5.412;2023-07-20T03:33:04;1.42;;;1.10;;
65924;SDS011;66010;52.084;5.412;2023-07-20T03:35:31;2.67;;;1.20;;
65924;SDS011;66010;52.084;5.412;2023-07-20T03:37:58;2.30;;;1.10;;
65924;SDS011;66010;52.084;5.412;2023-07-20T03:40:25;2.17;;;1.17;;
65924;SDS011;66010;52.084;5.412;2023-07-20T03:42:52;2.58;;;1.20;;
65924;SDS011;66010;52.084;5.412;2023-07-20T03:45:18;2.30;;;1.35;;
65924;SDS011;66010;52.084;5.412;2023-07-20T03:47:46;1.95;;;1.10;;
65924;SDS011;66010;52.084;5.412;2023-07-20T03:50:15;2.85;;;1.20;;
65924;SDS011;66010;52.084;5.412;2023-07-20T03:52:41;3.03;;;1.30;;
65924;SDS011;66010;52.084;5.412;2023-07-20T03:55:08;4.05;;;1.35;;
65924;SDS011;66010;52.084;5.412;2023-07-20T03:57:35;3.30;;;1.40;;
65924;SDS011;66010;52.084;5.412;2023-07-20T04:00:02;4.38;;;1.27;;
65924;SDS011;66010;52.084;5.412;2023-07-20T04:02:38;2.00;;;0.90;;
65924;SDS011;66010;52.084;5.412;2023-07-20T04:05:04;4.07;;;1.30;;
65924;SDS011;66010;52.084;5.412;2023-07-20T04:07:31;5.97;;;1.48;;
65924;SDS011;66010;52.084;5.412;2023-07-20T04:09:58;6.90;;;1.30;;
65924;SDS011;66010;52.084;5.412;2023-07-20T04:12:24;4.03;;;1.30;;
65924;SDS011;66010;52.084;5.412;2023-07-20T04:14:51;2.47;;;1.17;;
65924;SDS011;66010;52.084;5.412;2023-07-20T04:17:18;6.15;;;1.30;;
65924;SDS011;66010;52.084;5.412;2023-07-20T04:19:45;4.70;;;1.52;;
65924;SDS011;66010;52.084;5.412;2023-07-20T04:22:12;1.33;;;1.10;;
65924;SDS011;66010;52.084;5.412;2023-07-20T04:24:42;2.78;;;1.10;;
65924;SDS011;66010;52.084;5.412;2023-07-20T04:29:35;2.25;;;1.33;;
65924;SDS011;66010;52.084;5.412;2023-07-20T04:32:02;3.10;;;1.20;;
65924;SDS011;66010;52.084;5.412;2023-07-20T04:34:29;2.33;;;1.40;;
65924;SDS011;66010;52.084;5.412;2023-07-20T04:36:56;1.77;;;1.15;;
65924;SDS011;66010;52.084;5.412;2023-07-20T04:39:24;2.45;;;1.23;;
65924;SDS011;66010;52.084;5.412;2023-07-20T04:42:03;3.10;;;1.30;;
65924;SDS011;66010;52.084;5.412;2023-07-20T04:44:29;2.20;;;1.20;;
65924;SDS011;66010;52.084;5.412;2023-07-20T04:46:56;4.18;;;1.30;;
65924;SDS011;66010;52.084;5.412;2023-07-20T04:49:23;3.65;;;1.10;;
65924;SDS011;66010;52.084;5.412;2023-07-20T04:51:51;2.88;;;1.42;;
65924;SDS011;66010;52.084;5.412;2023-07-20T04:54:17;1.83;;;0.90;;
65924;SDS011;66010;52.084;5.412;2023-07-20T04:56:49;2.28;;;1.15;;
65924;SDS011;66010;52.084;5.412;2023-07-20T04:59:18;1.70;;;1.20;;
65924;SDS011;66010;52.084;5.412;2023-07-20T05:01:45;1.40;;;1.00;;
65924;SDS011;66010;52.084;5.412;2023-07-20T05:04:12;5.35;;;1.48;;
65924;SDS011;66010;52.084;5.412;2023-07-20T05:06:41;4.82;;;1.73;;
65924;SDS011;66010;52.084;5.412;2023-07-20T05:09:08;2.85;;;1.20;;
65924;SDS011;66010;52.084;5.412;2023-07-20T05:11:35;1.70;;;1.20;;
65924;SDS011;66010;52.084;5.412;2023-07-20T05:14:02;2.92;;;1.38;;
65924;SDS011;66010;52.084;5.412;2023-07-20T05:16:29;1.85;;;1.00;;
65924;SDS011;66010;52.084;5.412;2023-07-20T05:19:01;3.33;;;1.40;;
65924;SDS011;66010;52.084;5.412;2023-07-20T05:21:27;2.03;;;1.20;;
65924;SDS011;66010;52.084;5.412;2023-07-20T05:23:54;3.45;;;1.30;;
65924;SDS011;66010;52.084;5.412;2023-07-20T05:26:22;3.15;;;1.33;;
65924;SDS011;66010;52.084;5.412;2023-07-20T05:28:49;3.17;;;1.30;;
65924;SDS011;66010;52.084;5.412;2023-07-20T05:31:15;4.13;;;1.20;;
65924;SDS011;66010;52.084;5.412;2023-07-20T05:33:42;2.63;;;1.50;;
65924;SDS011;66010;52.084;5.412;2023-07-20T05:36:09;3.10;;;1.50;;
65924;SDS011;66010;52.084;5.412;2023-07-20T05:38:35;2.25;;;1.35;;
65924;SDS011;66010;52.084;5.412;2023-07-20T05:41:02;2.10;;;1.20;;
65924;SDS011;66010;52.084;5.412;2023-07-20T05:43:30;2.30;;;1.30;;
65924;SDS011;66010;52.084;5.412;2023-07-20T05:45:57;2.47;;;1.30;;
65924;SDS011;66010;52.084;5.412;2023-07-20T05:48:24;2.60;;;1.20;;
65924;SDS011;66010;52.084;5.412;2023-07-20T05:50:51;2.65;;;1.10;;
65924;SDS011;66010;52.084;5.412;2023-07-20T05:53:17;6.57;;;1.45;;
65924;SDS011;66010;52.084;5.412;2023-07-20T05:55:44;3.70;;;1.20;;
65924;SDS011;66010;52.084;5.412;2023-07-20T05:58:11;2.92;;;1.20;;
65924;SDS011;66010;52.084;5.412;2023-07-20T06:00:37;5.55;;;1.50;;
65924;SDS011;66010;52.084;5.412;2023-07-20T06:03:04;5.53;;;1.55;;
65924;SDS011;66010;52.084;5.412;2023-07-20T06:05:30;5.10;;;1.30;;
65924;SDS011;66010;52.084;5.412;2023-07-20T06:07:57;3.78;;;1.33;;
65924;SDS011;66010;52.084;5.412;2023-07-20T06:12:51;6.13;;;1.60;;
65924;SDS011;66010;52.084;5.412;2023-07-20T06:15:24;5.85;;;1.50;;
65924;SDS011;66010;52.084;5.412;2023-07-20T06:17:51;5.00;;;1.30;;
65924;SDS011;66010;52.084;5.412;2023-07-20T06:20:18;3.05;;;1.25;;
65924;SDS011;66010;52.084;5.412;2023-07-20T06:22:44;3.55;;;1.40;;
65924;SDS011;66010;52.084;5.412;2023-07-20T06:25:11;7.50;;;1.55;;
65924;SDS011;66010;52.084;5.412;2023-07-20T06:27:38;4.50;;;1.35;;
65924;SDS011;66010;52.084;5.412;2023-07-20T06:30:05;4.10;;;1.30;;
65924;SDS011;66010;52.084;5.412;2023-07-20T06:32:31;4.68;;;1.10;;
65924;SDS011;66010;52.084;5.412;2023-07-20T06:37:25;5.05;;;1.40;;
65924;SDS011;66010;52.084;5.412;2023-07-20T06:39:52;4.30;;;1.48;;
65924;SDS011;66010;52.084;5.412;2023-07-20T06:42:21;3.78;;;1.10;;
65924;SDS011;66010;52.084;5.412;2023-07-20T06:44:48;3.08;;;1.13;;
65924;SDS011;66010;52.084;5.412;2023-07-20T06:47:14;2.75;;;1.10;;
65924;SDS011;66010;52.084;5.412;2023-07-20T06:49:41;3.55;;;1.40;;
65924;SDS011;66010;52.084;5.412;2023-07-20T06:52:07;3.30;;;1.25;;
65924;SDS011;66010;52.084;5.412;2023-07-20T06:54:35;1.58;;;1.10;;
65924;SDS011;66010;52.084;5.412;2023-07-20T06:57:02;3.78;;;1.40;;
65924;SDS011;66010;52.084;5.412;2023-07-20T06:59:43;3.22;;;1.20;;
65924;SDS011;66010;52.084;5.412;2023-07-20T07:02:15;1.67;;;1.33;;
65924;SDS011;66010;52.084;5.412;2023-07-20T07:04:42;2.00;;;1.00;;
65924;SDS011;66010;52.084;5.412;2023-07-20T07:07:09;3.63;;;1.40;;
65924;SDS011;66010;52.084;5.412;2023-07-20T07:09:35;1.92;;;1.10;;
65924;SDS011;66010;52.084;5.412;2023-07-20T07:12:03;3.75;;;1.38;;
65924;SDS011;66010;52.084;5.412;2023-07-20T07:14:30;2.13;;;1.25;;
65924;SDS011;66010;52.084;5.412;2023-07-20T07:16:58;2.15;;;1.10;;
65924;SDS011;66010;52.084;5.412;2023-07-20T07:19:29;1.95;;;1.20;;
65924;SDS011;66010;52.084;5.412;2023-07-20T07:21:56;3.28;;;1.20;;
65924;SDS011;66010;52.084;5.412;2023-07-20T07:24:26;2.67;;;1.30;;
65924;SDS011;66010;52.084;5.412;2023-07-20T07:26:55;3.55;;;1.10;;
65924;SDS011;66010;52.084;5.412;2023-07-20T07:29:21;2.67;;;1.00;;
65924;SDS011;66010;52.084;5.412;2023-07-20T07:31:48;1.98;;;1.20;;
65924;SDS011;66010;52.084;5.412;2023-07-20T07:34:14;1.50;;;1.00;;
65924;SDS011;66010;52.084;5.412;2023-07-20T07:36:41;2.00;;;1.00;;
65924;SDS011;66010;52.084;5.412;2023-07-20T07:39:07;2.28;;;1.00;;
65924;SDS011;66010;52.084;5.412;2023-07-20T07:41:37;1.42;;;1.08;;
65924;SDS011;66010;52.084;5.412;2023-07-20T07:44:03;2.47;;;0.90;;
65924;SDS011;66010;52.084;5.412;2023-07-20T07:46:30;1.73;;;1.00;;
65924;SDS011;66010;52.084;5.412;2023-07-20T07:48:56;2.13;;;1.10;;
65924;SDS011;66010;52.084;5.412;2023-07-20T07:51:23;2.22;;;1.00;;
65924;SDS011;66010;52.084;5.412;2023-07-20T07:53:49;3.03;;;1.15;;
65924;SDS011;66010;52.084;5.412;2023-07-20T07:56:16;1.88;;;0.90;;
65924;SDS011;66010;52.084;5.412;2023-07-20T07:58:43;2.75;;;1.00;;
65924;SDS011;66010;52.084;5.412;2023-07-20T08:01:09;1.05;;;0.80;;
65924;SDS011;66010;52.084;5.412;2023-07-20T08:03:36;4.72;;;1.20;;
65924;SDS011;66010;52.084;5.412;2023-07-20T08:06:03;3.42;;;1.20;;
65924;SDS011;66010;52.084;5.412;2023-07-20T08:08:31;3.50;;;1.17;;
65924;SDS011;66010;52.084;5.412;2023-07-20T08:10:58;2.50;;;1.00;;
65924;SDS011;66010;52.084;5.412;2023-07-20T08:13:24;3.67;;;1.10;;
65924;SDS011;66010;52.084;5.412;2023-07-20T08:15:51;1.83;;;1.00;;
65924;SDS011;66010;52.084;5.412;2023-07-20T08:18:18;1.85;;;1.00;;
65924;SDS011;66010;52.084;5.412;2023-07-20T08:20:45;2.92;;;0.90;;
65924;SDS011;66010;52.084;5.412;2023-07-20T08:23:12;2.35;;;0.93;;
65924;SDS011;66010;52.084;5.412;2023-07-20T08:25:39;2.90;;;0.98;;
65924;SDS011;66010;52.084;5.412;2023-07-20T08:28:16;3.22;;;1.15;;
65924;SDS011;66010;52.084;5.412;2023-07-20T08:30:46;2.03;;;0.90;;
65924;SDS011;66010;52.084;5.412;2023-07-20T08:33:14;1.17;;;0.90;;
65924;SDS011;66010;52.084;5.412;2023-07-20T08:35:41;1.73;;;0.90;;
65924;SDS011;66010;52.084;5.412;2023-07-20T08:38:07;2.83;;;1.00;;
65924;SDS011;66010;52.084;5.412;2023-07-20T08:40:39;1.42;;;0.90;;
65924;SDS011;66010;52.084;5.412;2023-07-20T08:43:06;2.30;;;1.02;;
65924;SDS011;66010;52.084;5.412;2023-07-20T08:45:33;1.88;;;1.00;;
65924;SDS011;66010;52.084;5.412;2023-07-20T08:50:26;3.67;;;1.08;;
65924;SDS011;66010;52.084;5.412;2023-07-20T08:52:55;1.50;;;0.90;;
65924;SDS011;66010;52.084;5.412;2023-07-20T08:55:23;1.38;;;1.00;;
65924;SDS011;66010;52.084;5.412;2023-07-20T08:57:50;1.65;;;1.00;;
65924;SDS011;66010;52.084;5.412;2023-07-20T09:00:19;1.42;;;0.85;;
65924;SDS011;66010;52.084;5.412;2023-07-20T09:02:46;1.05;;;0.60;;
65924;SDS011;66010;52.084;5.412;2023-07-20T09:05:14;2.20;;;0.95;;
65924;SDS011;66010;52.084;5.412;2023-07-20T09:07:41;1.30;;;0.80;;
65924;SDS011;66010;52.084;5.412;2023-07-20T09:10:07;1.00;;;0.90;;
65924;SDS011;66010;52.084;5.412;2023-07-20T09:12:37;1.63;;;0.90;;
65924;SDS011;66010;52.084;5.412;2023-07-20T09:15:05;1.88;;;0.80;;
65924;SDS011;66010;52.084;5.412;2023-07-20T09:19:58;4.57;;;0.93;;
65924;SDS011;66010;52.084;5.412;2023-07-20T09:22:29;2.05;;;0.70;;
65924;SDS011;66010;52.084;5.412;2023-07-20T09:24:56;1.65;;;0.90;;
65924;SDS011;66010;52.084;5.412;2023-07-20T09:27:22;1.85;;;0.90;;
65924;SDS011;66010;52.084;5.412;2023-07-20T09:29:49;2.33;;;0.73;;
65924;SDS011;66010;52.084;5.412;2023-07-20T09:32:20;1.08;;;0.90;;
65924;SDS011;66010;52.084;5.412;2023-07-20T09:34:51;1.23;;;0.80;;
65924;SDS011;66010;52.084;5.412;2023-07-20T09:37:22;1.80;;;0.98;;
65924;SDS011;66010;52.084;5.412;2023-07-20T09:39:49;2.15;;;0.90;;
65924;SDS011;66010;52.084;5.412;2023-07-20T09:42:21;3.03;;;0.80;;
65924;SDS011;66010;52.084;5.412;2023-07-20T09:44:50;2.25;;;0.80;;
65924;SDS011;66010;52.084;5.412;2023-07-20T09:47:23;1.00;;;0.90;;
65924;SDS011;66010;52.084;5.412;2023-07-20T09:50:00;1.23;;;0.80;;
65924;SDS011;66010;52.084;5.412;2023-07-20T09:52:30;1.38;;;0.73;;
65924;SDS011;66010;52.084;5.412;2023-07-20T09:55:00;2.03;;;0.82;;
65924;SDS011;66010;52.084;5.412;2023-07-20T09:57:27;1.98;;;0.70;;
65924;SDS011;66010;52.084;5.412;2023-07-20T09:59:54;2.83;;;0.80;;
65924;SDS011;66010;52.084;5.412;2023-07-20T10:02:23;0.73;;;0.70;;
65924;SDS011;66010;52.084;5.412;2023-07-20T10:04:52;1.83;;;0.82;;
65924;SDS011;66010;52.084;5.412;2023-07-20T10:07:19;0.77;;;0.65;;
65924;SDS011;66010;52.084;5.412;2023-07-20T10:09:49;0.90;;;0.70;;
65924;SDS011;66010;52.084;5.412;2023-07-20T10:12:18;2.78;;;0.90;;
65924;SDS011;66010;52.084;5.412;2023-07-20T10:14:49;1.23;;;0.77;;
65924;SDS011;66010;52.084;5.412;2023-07-20T10:17:18;1.95;;;0.60;;
65924;SDS011;66010;52.084;5.412;2023-07-20T10:19:47;1.38;;;0.70;;
65924;SDS011;66010;52.084;5.412;2023-07-20T10:24:46;0.90;;;0.70;;
65924;SDS011;66010;52.084;5.412;2023-07-20T10:27:14;0.95;;;0.60;;
65924;SDS011;66010;52.084;5.412;2023-07-20T10:29:41;1.88;;;0.60;;
65924;SDS011;66010;52.084;5.412;2023-07-20T10:32:08;0.77;;;0.70;;
65924;SDS011;66010;52.084;5.412;2023-07-20T10:34:35;1.27;;;0.80;;
65924;SDS011;66010;52.084;5.412;2023-07-20T10:37:02;1.95;;;0.70;;
65924;SDS011;66010;52.084;5.412;2023-07-20T10:39:30;0.98;;;0.70;;
65924;SDS011;66010;52.084;5.412;2023-07-20T10:42:06;1.40;;;0.80;;
65924;SDS011;66010;52.084;5.412;2023-07-20T10:44:34;1.85;;;0.80;;
65924;SDS011;66010;52.084;5.412;2023-07-20T10:47:03;1.27;;;0.73;;
65924;SDS011;66010;52.084;5.412;2023-07-20T10:49:35;0.63;;;0.63;;
65924;SDS011;66010;52.084;5.412;2023-07-20T10:52:05;2.40;;;0.75;;
65924;SDS011;66010;52.084;5.412;2023-07-20T10:54:33;0.52;;;0.52;;
65924;SDS011;66010;52.084;5.412;2023-07-20T10:59:46;0.77;;;0.60;;
65924;SDS011;66010;52.084;5.412;2023-07-20T11:02:17;3.65;;;0.70;;
65924;SDS011;66010;52.084;5.412;2023-07-20T11:04:44;1.83;;;0.63;;
65924;SDS011;66010;52.084;5.412;2023-07-20T11:07:17;1.60;;;0.60;;
65924;SDS011;66010;52.084;5.412;2023-07-20T11:09:45;1.10;;;0.63;;
65924;SDS011;66010;52.084;5.412;2023-07-20T11:12:18;0.82;;;0.70;;
65924;SDS011;66010;52.084;5.412;2023-07-20T11:14:54;0.82;;;0.70;;
65924;SDS011;66010;52.084;5.412;2023-07-20T11:17:20;0.82;;;0.60;;
65924;SDS011;66010;52.084;5.412;2023-07-20T11:19:56;0.98;;;0.70;;
65924;SDS011;66010;52.084;5.412;2023-07-20T11:22:26;1.17;;;0.70;;
65924;SDS011;66010;52.084;5.412;2023-07-20T11:24:56;0.82;;;0.60;;
65924;SDS011;66010;52.084;5.412;2023-07-20T11:27:22;0.82;;;0.70;;
65924;SDS011;66010;52.084;5.412;2023-07-20T11:29:49;0.80;;;0.60;;
65924;SDS011;66010;52.084;5.412;2023-07-20T11:32:20;0.93;;;0.70;;
65924;SDS011;66010;52.084;5.412;2023-07-20T11:34:47;0.75;;;0.70;;
65924;SDS011;66010;52.084;5.412;2023-07-20T11:37:14;1.08;;;0.70;;
65924;SDS011;66010;52.084;5.412;2023-07-20T11:39:40;1.50;;;0.52;;
65924;SDS011;66010;52.084;5.412;2023-07-20T11:42:07;0.88;;;0.70;;
65924;SDS011;66010;52.084;5.412;2023-07-20T11:44:34;0.70;;;0.60;;
65924;SDS011;66010;52.084;5.412;2023-07-20T11:47:04;0.95;;;0.63;;
65924;SDS011;66010;52.084;5.412;2023-07-20T11:49:38;0.80;;;0.60;;
65924;SDS011;66010;52.084;5.412;2023-07-20T11:52:10;0.70;;;0.70;;
65924;SDS011;66010;52.084;5.412;2023-07-20T11:54:38;1.13;;;0.65;;
65924;SDS011;66010;52.084;5.412;2023-07-20T11:57:04;0.80;;;0.60;;
65924;SDS011;66010;52.084;5.412;2023-07-20T11:59:31;1.67;;;0.90;;
65924;SDS011;66010;52.084;5.412;2023-07-20T12:02:00;1.00;;;0.70;;
65924;SDS011;66010;52.084;5.412;2023-07-20T12:04:27;1.55;;;0.80;;
65924;SDS011;66010;52.084;5.412;2023-07-20T12:06:54;1.40;;;0.80;;
65924;SDS011;66010;52.084;5.412;2023-07-20T12:09:21;1.83;;;0.70;;
65924;SDS011;66010;52.084;5.412;2023-07-20T12:11:48;2.03;;;0.70;;
65924;SDS011;66010;52.084;5.412;2023-07-20T12:14:15;2.70;;;0.85;;
65924;SDS011;66010;52.084;5.412;2023-07-20T12:16:43;1.20;;;0.80;;
65924;SDS011;66010;52.084;5.412;2023-07-20T12:19:11;1.00;;;0.70;;
65924;SDS011;66010;52.084;5.412;2023-07-20T12:21:39;1.20;;;0.70;;
65924;SDS011;66010;52.084;5.412;2023-07-20T12:24:08;1.25;;;0.70;;
65924;SDS011;66010;52.084;5.412;2023-07-20T12:26:36;1.88;;;0.90;;
65924;SDS011;66010;52.084;5.412;2023-07-20T12:29:03;1.48;;;0.90;;
65924;SDS011;66010;52.084;5.412;2023-07-20T12:31:30;0.70;;;0.70;;
65924;SDS011;66010;52.084;5.412;2023-07-20T12:33:59;0.80;;;0.70;;
65924;SDS011;66010;52.084;5.412;2023-07-20T12:36:25;1.35;;;0.80;;
65924;SDS011;66010;52.084;5.412;2023-07-20T12:38:52;1.02;;;0.80;;
65924;SDS011;66010;52.084;5.412;2023-07-20T12:41:19;1.23;;;0.73;;
65924;SDS011;66010;52.084;5.412;2023-07-20T12:43:46;1.15;;;0.80;;
65924;SDS011;66010;52.084;5.412;2023-07-20T12:46:13;1.95;;;0.82;;
65924;SDS011;66010;52.084;5.412;2023-07-20T12:48:40;1.33;;;0.80;;
65924;SDS011;66010;52.084;5.412;2023-07-20T12:51:11;0.75;;;0.70;;
65924;SDS011;66010;52.084;5.412;2023-07-20T12:53:38;1.70;;;0.80;;
65924;SDS011;66010;52.084;5.412;2023-07-20T12:56:05;1.55;;;0.75;;
65924;SDS011;66010;52.084;5.412;2023-07-20T12:58:34;1.92;;;0.90;;
65924;SDS011;66010;52.084;5.412;2023-07-20T13:01:01;2.40;;;0.90;;
65924;SDS011;66010;52.084;5.412;2023-07-20T13:03:28;1.98;;;0.90;;
65924;SDS011;66010;52.084;5.412;2023-07-20T13:05:57;1.73;;;0.93;;
65924;SDS011;66010;52.084;5.412;2023-07-20T13:08:27;1.58;;;0.90;;
65924;SDS011;66010;52.084;5.412;2023-07-20T13:10:54;2.65;;;0.82;;
65924;SDS011;66010;52.084;5.412;2023-07-20T13:13:20;1.23;;;0.93;;
65924;SDS011;66010;52.084;5.412;2023-07-20T13:15:47;2.47;;;1.10;;
65924;SDS011;66010;52.084;5.412;2023-07-20T13:18:14;1.90;;;1.00;;
65924;SDS011;66010;52.084;5.412;2023-07-20T13:20:41;1.33;;;0.90;;
65924;SDS011;66010;52.084;5.412;2023-07-20T13:23:07;2.80;;;0.90;;
65924;SDS011;66010;52.084;5.412;2023-07-20T13:25:34;2.47;;;0.80;;
65924;SDS011;66010;52.084;5.412;2023-07-20T13:28:00;4.78;;;1.00;;
65924;SDS011;66010;52.084;5.412;2023-07-20T13:30:27;4.25;;;1.08;;
65924;SDS011;66010;52.084;5.412;2023-07-20T13:32:53;5.88;;;1.20;;
65924;SDS011;66010;52.084;5.412;2023-07-20T13:35:20;3.65;;;1.08;;
65924;SDS011;66010;52.084;5.412;2023-07-20T13:37:47;1.27;;;1.00;;
65924;SDS011;66010;52.084;5.412;2023-07-20T13:40:14;2.30;;;0.95;;
65924;SDS011;66010;52.084;5.412;2023-07-20T13:42:43;2.13;;;0.80;;
65924;SDS011;66010;52.084;5.412;2023-07-20T13:45:11;2.58;;;1.00;;
65924;SDS011;66010;52.084;5.412;2023-07-20T13:47:38;1.40;;;0.85;;
65924;SDS011;66010;52.084;5.412;2023-07-20T13:50:05;1.38;;;0.90;;
65924;SDS011;66010;52.084;5.412;2023-07-20T13:55:02;1.73;;;1.00;;
65924;SDS011;66010;52.084;5.412;2023-07-20T13:57:30;1.10;;;0.85;;
65924;SDS011;66010;52.084;5.412;2023-07-20T14:00:00;1.42;;;1.00;;
65924;SDS011;66010;52.084;5.412;2023-07-20T14:02:37;1.67;;;0.80;;
65924;SDS011;66010;52.084;5.412;2023-07-20T14:05:06;1.73;;;1.00;;
65924;SDS011;66010;52.084;5.412;2023-07-20T14:07:36;1.25;;;1.00;;
65924;SDS011;66010;52.084;5.412;2023-07-20T14:10:04;1.33;;;0.82;;
65924;SDS011;66010;52.084;5.412;2023-07-20T14:12:33;1.33;;;1.00;;
65924;SDS011;66010;52.084;5.412;2023-07-20T14:15:01;1.40;;;0.88;;
65924;SDS011;66010;52.084;5.412;2023-07-20T14:17:28;1.25;;;1.00;;
65924;SDS011;66010;52.084;5.412;2023-07-20T14:19:55;2.40;;;1.00;;
65924;SDS011;66010;52.084;5.412;2023-07-20T14:22:21;1.17;;;0.90;;
65924;SDS011;66010;52.084;5.412;2023-07-20T14:24:49;1.00;;;0.88;;
65924;SDS011;66010;52.084;5.412;2023-07-20T14:27:15;1.60;;;1.00;;
65924;SDS011;66010;52.084;5.412;2023-07-20T14:29:42;1.42;;;1.00;;
65924;SDS011;66010;52.084;5.412;2023-07-20T14:34:36;1.48;;;0.93;;
65924;SDS011;66010;52.084;5.412;2023-07-20T14:37:05;1.85;;;1.00;;
65924;SDS011;66010;52.084;5.412;2023-07-20T14:39:32;1.88;;;0.90;;
65924;SDS011;66010;52.084;5.412;2023-07-20T14:41:58;2.40;;;1.10;;
65924;SDS011;66010;52.084;5.412;2023-07-20T14:44:25;1.77;;;1.00;;
65924;SDS011;66010;52.084;5.412;2023-07-20T14:46:51;1.15;;;1.00;;
65924;SDS011;66010;52.084;5.412;2023-07-20T14:49:38;1.85;;;0.93;;
65924;SDS011;66010;52.084;5.412;2023-07-20T14:52:05;2.42;;;1.02;;
65924;SDS011;66010;52.084;5.412;2023-07-20T14:54:41;1.75;;;0.80;;
65924;SDS011;66010;52.084;5.412;2023-07-20T14:57:07;1.00;;;0.90;;
65924;SDS011;66010;52.084;5.412;2023-07-20T14:59:40;1.40;;;1.00;;
65924;SDS011;66010;52.084;5.412;2023-07-20T15:02:08;1.73;;;1.10;;
65924;SDS011;66010;52.084;5.412;2023-07-20T15:04:34;1.75;;;1.00;;
65924;SDS011;66010;52.084;5.412;2023-07-20T15:07:01;1.60;;;1.00;;
65924;SDS011;66010;52.084;5.412;2023-07-20T15:09:28;2.50;;;1.10;;
65924;SDS011;66010;52.084;5.412;2023-07-20T15:11:54;3.45;;;1.38;;
65924;SDS011;66010;52.084;5.412;2023-07-20T15:14:21;5.80;;;1.50;;
65924;SDS011;66010;52.084;5.412;2023-07-20T15:16:47;4.53;;;1.30;;
65924;SDS011;66010;52.084;5.412;2023-07-20T15:19:16;4.38;;;1.50;;
65924;SDS011;66010;52.084;5.412;2023-07-20T15:21:43;5.45;;;1.30;;